NCAR-RAP Real-Time Weather Data

Output produced by METARs form (24 April 2018  16:11 UTC)
found at http://weather.rap.ucar.edu/surface/
 
RJSC 241000Z 32003KT 5000 -RA BR FEW003 SCT015 BKN040 12/12 Q1010
RJSC 240900Z 31001KT 8000 -RA FEW003 SCT015 BKN050 13/12 Q1010
RJSC 240800Z 30002KT 8000 -RA FEW005 SCT015 BKN060 13/12 Q1010
RJSC 240700Z 36003KT 7000 -RA FEW003 SCT010 BKN030 13/12 Q1011
RJSC 240600Z 33003KT 6000 -RA FEW003 SCT008 BKN030 13/12 Q1011
RJSC 240500Z 33003KT 300V360 7000 -RA FEW003 SCT010 BKN040 13/12 Q1012
RJSC 240400Z VRB02KT 8000 -RA FEW003 SCT010 BKN030 13/11 Q1013
RJSC 240300Z VRB01KT 8000 -RA FEW003 SCT008 BKN030 13/11 Q1013
RJSC 240200Z VRB02KT 8000 -RA FEW003 SCT007 BKN030 12/11 Q1014
RJSC 240100Z VRB02KT 5000 -RA BCFG BR FEW002 SCT007 BKN040 11/11 Q1015
RJSC 240000Z VRB02KT 5000 -RA BCFG BR FEW002 SCT008 BKN040 11/11 Q1016
RJSC 232300Z VRB01KT 5000 -RA BCFG BR FEW002 SCT010 BKN040 11/10 Q1017
RJSC 232240Z VRB02KT 5000 -RA BCFG BR FEW002 SCT010 BKN040 10/10 Q1017 RMK 1ST002 4ST010 7SC040 A3004
RJSC 231000Z 10010KT 9999 FEW025 BKN040 BKN/// 13/08 Q1021
RJSC 230900Z 09012KT 9999 FEW025 BKN040 BKN/// 13/08 Q1021
RJSC 230800Z 09012KT 9999 FEW025 SCT040 BKN/// 13/08 Q1020
RJSC 230700Z 09013KT 9999 FEW025 SCT100 BKN/// 15/09 Q1020
RJSC 230600Z 09014KT 9999 FEW025 SCT100 BKN/// 15/08 Q1020
RJSC 230500Z 08015KT 9999 FEW025 SCT040 BKN/// 15/09 Q1021
RJSC 230400Z 09012KT 9999 FEW025 SCT040 BKN/// 16/09 Q1021
RJSC 230300Z 09012KT 9999 FEW030 SCT040 BKN/// 16/08 Q1021
RJSC 230200Z 07013KT 9999 FEW025 SCT040 BKN/// 17/09 Q1022
RJSC 230100Z 07013KT 9999 FEW025 SCT030 BKN/// 17/09 Q1023
RJSC 230000Z 07008KT 030V110 9999 FEW025 BKN170 15/09 Q1023
RJSC 222300Z 34011KT 9999 FEW025 SCT100 BKN160 13/09 Q1022
RJSC 222240Z 01011KT 9999 FEW025 SCT100 BKN150 12/09 Q1022 RMK 1SC025 3AC100 6AC150 A3019
RJSC 221000Z 01011KT CAVOK 18/09 Q1017
RJSC 220900Z 36013KT CAVOK 20/08 Q1016
RJSC 220800Z 03014KT CAVOK 22/08 Q1016
RJSC 220700Z 34013KT CAVOK 26/07 Q1016
RJSC 220600Z 30009KT CAVOK 27/05 Q1016
RJSC 220500Z 30005KT 230V340 CAVOK 27/04 Q1016